CheckWX is a tool to help pilots better visualize weather data.  It is not intended as a substitute for an official pre-flight weather briefing.

02:57:14 UTC

CYOC METAR
Old Crow Airport
Old Crow, Canada
Current

2 hours ago

CYOC 240100Z 02007KT 35SM FEW042 SCT200 M03/M10 A2989 RMK SC1CI3 SC TR 0.0/LAST STFD OBS/NXT 241300Z SLP144
Observed
Mar-24 @ 01:00 UTC
Wind
  • 020° at 7 KTS
Visibility
35 SM
Flight Rules
VFR
Cloud Levels
  • Few at 4,200' AGL
  • Scattered at 20,000' AGL
Temperature
-3°C / 27°F
Dewpoint
-10°C / 14°F
Humidity
59%
Altimeter
29.89" Hg
Pressure
1014.4 hPa
Previous

3 hours ago

CYOC 240000Z 03008KT 35SM FEW042 FEW200 M03/M10 A2989 RMK SC1CI2 SC TR SLP144
Observed
Mar-24 @ 00:00 UTC
Wind
  • 030° at 8 KTS
Visibility
35 SM
Flight Rules
VFR
Cloud Levels
  • Few at 4,200' AGL
  • Few at 20,000' AGL
Temperature
-3°C / 27°F
Dewpoint
-10°C / 14°F
Humidity
59%
Altimeter
29.89" Hg
Pressure
1014.4 hPa
Previous

4 hours ago

CYOC 232300Z 06007KT 35SM FEW042 FEW200 M02/M10 A2989 RMK SC1CI2 SC TR SLP144
Observed
Mar-23 @ 23:00 UTC
Wind
  • 060° at 7 KTS
Visibility
35 SM
Flight Rules
VFR
Cloud Levels
  • Few at 4,200' AGL
  • Few at 20,000' AGL
Temperature
-2°C / 28°F
Dewpoint
-10°C / 14°F
Humidity
55%
Altimeter
29.89" Hg
Pressure
1014.4 hPa